sensor_id;sensor_type;location;lat;lon;timestamp;P1;durP1;ratioP1;P2;durP2;ratioP2
142;SDS011;63667;49.046;8.468;2023-05-29T00:02:18;13.93;;;6.90;;
142;SDS011;63667;49.046;8.468;2023-05-29T00:04:45;10.63;;;6.50;;
142;SDS011;63667;49.046;8.468;2023-05-29T00:07:12;9.57;;;6.40;;
142;SDS011;63667;49.046;8.468;2023-05-29T00:09:40;14.40;;;7.30;;
142;SDS011;63667;49.046;8.468;2023-05-29T00:12:06;16.70;;;7.33;;
142;SDS011;63667;49.046;8.468;2023-05-29T00:14:34;20.60;;;6.07;;
142;SDS011;63667;49.046;8.468;2023-05-29T00:17:01;13.03;;;6.50;;
142;SDS011;63667;49.046;8.468;2023-05-29T00:19:29;12.20;;;6.40;;
142;SDS011;63667;49.046;8.468;2023-05-29T00:21:57;11.50;;;6.40;;
142;SDS011;63667;49.046;8.468;2023-05-29T00:24:24;10.83;;;6.67;;
142;SDS011;63667;49.046;8.468;2023-05-29T00:26:52;15.40;;;6.90;;
142;SDS011;63667;49.046;8.468;2023-05-29T00:29:19;11.77;;;6.60;;
142;SDS011;63667;49.046;8.468;2023-05-29T00:31:48;13.30;;;7.20;;
142;SDS011;63667;49.046;8.468;2023-05-29T00:34:15;12.47;;;6.43;;
142;SDS011;63667;49.046;8.468;2023-05-29T00:36:42;20.80;;;7.13;;
142;SDS011;63667;49.046;8.468;2023-05-29T00:39:10;15.00;;;6.87;;
142;SDS011;63667;49.046;8.468;2023-05-29T00:41:38;9.97;;;6.33;;
142;SDS011;63667;49.046;8.468;2023-05-29T00:44:05;13.07;;;7.00;;
142;SDS011;63667;49.046;8.468;2023-05-29T00:46:32;14.60;;;7.00;;
142;SDS011;63667;49.046;8.468;2023-05-29T00:48:59;13.17;;;7.00;;
142;SDS011;63667;49.046;8.468;2023-05-29T00:51:27;14.40;;;6.90;;
142;SDS011;63667;49.046;8.468;2023-05-29T00:53:55;17.07;;;6.47;;
142;SDS011;63667;49.046;8.468;2023-05-29T00:56:22;13.37;;;7.03;;
142;SDS011;63667;49.046;8.468;2023-05-29T00:58:50;15.60;;;7.17;;
142;SDS011;63667;49.046;8.468;2023-05-29T01:01:18;18.30;;;7.33;;
142;SDS011;63667;49.046;8.468;2023-05-29T01:03:45;12.27;;;6.73;;
142;SDS011;63667;49.046;8.468;2023-05-29T01:06:14;12.60;;;6.57;;
142;SDS011;63667;49.046;8.468;2023-05-29T01:08:41;10.63;;;6.90;;
142;SDS011;63667;49.046;8.468;2023-05-29T01:13:44;12.37;;;6.00;;
142;SDS011;63667;49.046;8.468;2023-05-29T01:16:13;9.93;;;5.87;;
142;SDS011;63667;49.046;8.468;2023-05-29T01:19:05;15.83;;;6.17;;
142;SDS011;63667;49.046;8.468;2023-05-29T01:26:47;12.37;;;5.97;;
142;SDS011;63667;49.046;8.468;2023-05-29T01:29:18;12.53;;;6.57;;
142;SDS011;63667;49.046;8.468;2023-05-29T01:31:46;12.63;;;6.50;;
142;SDS011;63667;49.046;8.468;2023-05-29T01:34:13;12.20;;;6.43;;
142;SDS011;63667;49.046;8.468;2023-05-29T01:36:40;13.30;;;6.67;;
142;SDS011;63667;49.046;8.468;2023-05-29T01:39:07;11.63;;;6.10;;
142;SDS011;63667;49.046;8.468;2023-05-29T01:41:34;14.50;;;6.57;;
142;SDS011;63667;49.046;8.468;2023-05-29T01:44:03;12.70;;;6.97;;
142;SDS011;63667;49.046;8.468;2023-05-29T01:46:34;10.23;;;6.70;;
142;SDS011;63667;49.046;8.468;2023-05-29T01:49:02;16.43;;;7.20;;
142;SDS011;63667;49.046;8.468;2023-05-29T01:51:29;10.37;;;6.63;;
142;SDS011;63667;49.046;8.468;2023-05-29T01:53:57;14.37;;;7.80;;
142;SDS011;63667;49.046;8.468;2023-05-29T01:56:26;11.43;;;6.47;;
142;SDS011;63667;49.046;8.468;2023-05-29T01:58:54;10.90;;;6.83;;
142;SDS011;63667;49.046;8.468;2023-05-29T02:01:21;13.80;;;6.90;;
142;SDS011;63667;49.046;8.468;2023-05-29T02:03:48;11.80;;;6.97;;
142;SDS011;63667;49.046;8.468;2023-05-29T02:06:16;20.60;;;7.10;;
142;SDS011;63667;49.046;8.468;2023-05-29T02:08:44;13.33;;;6.33;;
142;SDS011;63667;49.046;8.468;2023-05-29T02:11:11;15.77;;;7.90;;
142;SDS011;63667;49.046;8.468;2023-05-29T02:13:38;13.43;;;6.30;;
142;SDS011;63667;49.046;8.468;2023-05-29T02:16:05;13.40;;;6.90;;
142;SDS011;63667;49.046;8.468;2023-05-29T02:18:33;11.27;;;5.83;;
142;SDS011;63667;49.046;8.468;2023-05-29T02:21:00;9.80;;;6.00;;
142;SDS011;63667;49.046;8.468;2023-05-29T02:23:28;12.00;;;6.80;;
142;SDS011;63667;49.046;8.468;2023-05-29T02:25:55;13.57;;;6.80;;
142;SDS011;63667;49.046;8.468;2023-05-29T02:28:22;11.93;;;6.43;;
142;SDS011;63667;49.046;8.468;2023-05-29T02:30:50;16.57;;;7.23;;
142;SDS011;63667;49.046;8.468;2023-05-29T02:33:17;10.90;;;6.40;;
142;SDS011;63667;49.046;8.468;2023-05-29T02:35:44;11.47;;;6.37;;
142;SDS011;63667;49.046;8.468;2023-05-29T02:38:11;14.10;;;7.10;;
142;SDS011;63667;49.046;8.468;2023-05-29T02:40:39;12.60;;;6.70;;
142;SDS011;63667;49.046;8.468;2023-05-29T02:43:07;17.17;;;7.17;;
142;SDS011;63667;49.046;8.468;2023-05-29T02:45:34;13.60;;;6.60;;
142;SDS011;63667;49.046;8.468;2023-05-29T02:48:01;12.20;;;6.50;;
142;SDS011;63667;49.046;8.468;2023-05-29T02:50:29;12.60;;;7.20;;
142;SDS011;63667;49.046;8.468;2023-05-29T02:52:56;15.73;;;6.83;;
142;SDS011;63667;49.046;8.468;2023-05-29T02:55:24;13.33;;;7.50;;
142;SDS011;63667;49.046;8.468;2023-05-29T02:57:51;17.37;;;6.67;;
142;SDS011;63667;49.046;8.468;2023-05-29T03:00:21;12.17;;;6.70;;
142;SDS011;63667;49.046;8.468;2023-05-29T03:02:48;14.20;;;7.57;;
142;SDS011;63667;49.046;8.468;2023-05-29T03:05:15;12.80;;;6.73;;
142;SDS011;63667;49.046;8.468;2023-05-29T03:07:43;14.00;;;7.40;;
142;SDS011;63667;49.046;8.468;2023-05-29T03:10:10;11.77;;;7.23;;
142;SDS011;63667;49.046;8.468;2023-05-29T03:12:37;11.50;;;6.97;;
142;SDS011;63667;49.046;8.468;2023-05-29T03:15:05;16.30;;;7.30;;
142;SDS011;63667;49.046;8.468;2023-05-29T03:17:33;16.43;;;7.53;;
142;SDS011;63667;49.046;8.468;2023-05-29T03:20:04;14.20;;;7.23;;
142;SDS011;63667;49.046;8.468;2023-05-29T03:22:34;14.43;;;7.53;;
142;SDS011;63667;49.046;8.468;2023-05-29T03:25:01;10.63;;;6.60;;
142;SDS011;63667;49.046;8.468;2023-05-29T03:27:31;14.87;;;7.10;;
142;SDS011;63667;49.046;8.468;2023-05-29T03:29:58;15.30;;;7.63;;
142;SDS011;63667;49.046;8.468;2023-05-29T03:32:28;12.53;;;6.90;;
142;SDS011;63667;49.046;8.468;2023-05-29T03:34:55;15.10;;;7.37;;
142;SDS011;63667;49.046;8.468;2023-05-29T03:37:23;13.73;;;7.37;;
142;SDS011;63667;49.046;8.468;2023-05-29T03:39:50;13.87;;;7.07;;
142;SDS011;63667;49.046;8.468;2023-05-29T03:42:18;13.30;;;6.80;;
142;SDS011;63667;49.046;8.468;2023-05-29T03:44:45;16.33;;;7.10;;
142;SDS011;63667;49.046;8.468;2023-05-29T03:47:12;15.63;;;6.87;;
142;SDS011;63667;49.046;8.468;2023-05-29T03:49:39;12.00;;;7.07;;
142;SDS011;63667;49.046;8.468;2023-05-29T03:52:06;12.73;;;7.63;;
142;SDS011;63667;49.046;8.468;2023-05-29T03:54:33;17.73;;;7.07;;
142;SDS011;63667;49.046;8.468;2023-05-29T03:57:00;19.50;;;7.47;;
142;SDS011;63667;49.046;8.468;2023-05-29T03:59:28;14.50;;;7.43;;
142;SDS011;63667;49.046;8.468;2023-05-29T04:01:54;19.50;;;8.13;;
142;SDS011;63667;49.046;8.468;2023-05-29T04:04:22;12.50;;;7.57;;
142;SDS011;63667;49.046;8.468;2023-05-29T04:06:49;16.50;;;7.40;;
142;SDS011;63667;49.046;8.468;2023-05-29T04:09:17;13.23;;;7.27;;
142;SDS011;63667;49.046;8.468;2023-05-29T04:11:43;11.50;;;6.53;;
142;SDS011;63667;49.046;8.468;2023-05-29T04:14:11;13.40;;;7.07;;
142;SDS011;63667;49.046;8.468;2023-05-29T04:16:39;15.00;;;7.83;;
142;SDS011;63667;49.046;8.468;2023-05-29T04:19:06;18.70;;;7.23;;
142;SDS011;63667;49.046;8.468;2023-05-29T04:21:34;15.70;;;7.60;;
142;SDS011;63667;49.046;8.468;2023-05-29T04:24:01;12.97;;;7.23;;
142;SDS011;63667;49.046;8.468;2023-05-29T04:26:28;15.17;;;6.83;;
142;SDS011;63667;49.046;8.468;2023-05-29T04:28:58;14.43;;;6.90;;
142;SDS011;63667;49.046;8.468;2023-05-29T04:31:26;16.70;;;7.50;;
142;SDS011;63667;49.046;8.468;2023-05-29T04:33:54;14.23;;;7.47;;
142;SDS011;63667;49.046;8.468;2023-05-29T04:36:23;20.90;;;7.67;;
142;SDS011;63667;49.046;8.468;2023-05-29T04:38:52;11.40;;;6.90;;
142;SDS011;63667;49.046;8.468;2023-05-29T04:41:20;11.90;;;6.53;;
142;SDS011;63667;49.046;8.468;2023-05-29T04:43:55;15.57;;;7.50;;
142;SDS011;63667;49.046;8.468;2023-05-29T04:46:22;11.37;;;6.70;;
142;SDS011;63667;49.046;8.468;2023-05-29T04:48:50;13.30;;;6.73;;
142;SDS011;63667;49.046;8.468;2023-05-29T04:51:20;16.20;;;7.87;;
142;SDS011;63667;49.046;8.468;2023-05-29T04:53:47;19.07;;;7.67;;
142;SDS011;63667;49.046;8.468;2023-05-29T04:56:15;17.63;;;7.40;;
142;SDS011;63667;49.046;8.468;2023-05-29T04:58:42;10.63;;;6.60;;
142;SDS011;63667;49.046;8.468;2023-05-29T05:01:10;12.37;;;7.23;;
142;SDS011;63667;49.046;8.468;2023-05-29T05:03:40;12.50;;;6.97;;
142;SDS011;63667;49.046;8.468;2023-05-29T05:06:07;9.70;;;6.43;;
142;SDS011;63667;49.046;8.468;2023-05-29T05:08:35;13.03;;;6.50;;
142;SDS011;63667;49.046;8.468;2023-05-29T05:11:02;13.07;;;7.10;;
142;SDS011;63667;49.046;8.468;2023-05-29T05:13:29;13.13;;;7.03;;
142;SDS011;63667;49.046;8.468;2023-05-29T05:15:56;11.07;;;6.30;;
142;SDS011;63667;49.046;8.468;2023-05-29T05:18:23;17.17;;;6.73;;
142;SDS011;63667;49.046;8.468;2023-05-29T05:20:51;14.03;;;7.00;;
142;SDS011;63667;49.046;8.468;2023-05-29T05:23:18;13.17;;;7.30;;
142;SDS011;63667;49.046;8.468;2023-05-29T05:25:45;15.03;;;7.20;;
142;SDS011;63667;49.046;8.468;2023-05-29T05:28:13;20.00;;;8.03;;
142;SDS011;63667;49.046;8.468;2023-05-29T05:30:40;17.40;;;7.90;;
142;SDS011;63667;49.046;8.468;2023-05-29T05:33:07;18.93;;;7.60;;
142;SDS011;63667;49.046;8.468;2023-05-29T05:35:35;18.23;;;7.60;;
142;SDS011;63667;49.046;8.468;2023-05-29T05:38:02;13.20;;;7.40;;
142;SDS011;63667;49.046;8.468;2023-05-29T05:40:30;15.87;;;7.57;;
142;SDS011;63667;49.046;8.468;2023-05-29T05:42:57;13.60;;;7.43;;
142;SDS011;63667;49.046;8.468;2023-05-29T05:45:24;14.77;;;7.10;;
142;SDS011;63667;49.046;8.468;2023-05-29T05:47:51;12.87;;;8.07;;
142;SDS011;63667;49.046;8.468;2023-05-29T05:50:18;19.37;;;7.47;;
142;SDS011;63667;49.046;8.468;2023-05-29T05:52:46;11.63;;;7.20;;
142;SDS011;63667;49.046;8.468;2023-05-29T05:55:13;14.90;;;7.40;;
142;SDS011;63667;49.046;8.468;2023-05-29T05:57:41;13.63;;;6.80;;
142;SDS011;63667;49.046;8.468;2023-05-29T06:00:08;14.63;;;7.20;;
142;SDS011;63667;49.046;8.468;2023-05-29T06:02:40;11.87;;;7.00;;
142;SDS011;63667;49.046;8.468;2023-05-29T06:05:08;11.07;;;6.90;;
142;SDS011;63667;49.046;8.468;2023-05-29T06:07:37;16.37;;;7.63;;
142;SDS011;63667;49.046;8.468;2023-05-29T06:10:04;12.40;;;6.67;;
142;SDS011;63667;49.046;8.468;2023-05-29T06:12:32;10.40;;;6.43;;
142;SDS011;63667;49.046;8.468;2023-05-29T06:15:01;13.10;;;7.20;;
142;SDS011;63667;49.046;8.468;2023-05-29T06:17:29;17.83;;;7.90;;
142;SDS011;63667;49.046;8.468;2023-05-29T06:19:57;11.43;;;6.53;;
142;SDS011;63667;49.046;8.468;2023-05-29T06:22:24;16.97;;;7.10;;
142;SDS011;63667;49.046;8.468;2023-05-29T06:24:52;12.23;;;7.00;;
142;SDS011;63667;49.046;8.468;2023-05-29T06:27:19;11.67;;;6.73;;
142;SDS011;63667;49.046;8.468;2023-05-29T06:29:49;9.90;;;6.50;;
142;SDS011;63667;49.046;8.468;2023-05-29T06:32:15;13.10;;;6.20;;
142;SDS011;63667;49.046;8.468;2023-05-29T06:34:43;9.90;;;6.47;;
142;SDS011;63667;49.046;8.468;2023-05-29T06:37:10;14.97;;;6.70;;
142;SDS011;63667;49.046;8.468;2023-05-29T06:39:37;11.37;;;6.30;;
142;SDS011;63667;49.046;8.468;2023-05-29T06:42:07;12.77;;;6.10;;
142;SDS011;63667;49.046;8.468;2023-05-29T06:44:35;8.97;;;6.60;;
142;SDS011;63667;49.046;8.468;2023-05-29T06:47:03;12.13;;;6.40;;
142;SDS011;63667;49.046;8.468;2023-05-29T06:49:31;11.43;;;6.40;;
142;SDS011;63667;49.046;8.468;2023-05-29T06:51:58;10.43;;;6.03;;
142;SDS011;63667;49.046;8.468;2023-05-29T06:54:26;12.23;;;5.97;;
142;SDS011;63667;49.046;8.468;2023-05-29T06:56:53;12.10;;;6.10;;
142;SDS011;63667;49.046;8.468;2023-05-29T06:59:22;11.10;;;6.43;;
142;SDS011;63667;49.046;8.468;2023-05-29T07:01:49;10.00;;;5.73;;
142;SDS011;63667;49.046;8.468;2023-05-29T07:04:16;7.63;;;5.67;;
142;SDS011;63667;49.046;8.468;2023-05-29T07:06:44;13.47;;;6.43;;
142;SDS011;63667;49.046;8.468;2023-05-29T07:09:11;11.90;;;6.00;;
142;SDS011;63667;49.046;8.468;2023-05-29T07:11:38;9.80;;;6.00;;
142;SDS011;63667;49.046;8.468;2023-05-29T07:14:05;12.53;;;5.90;;
142;SDS011;63667;49.046;8.468;2023-05-29T07:16:33;8.73;;;5.63;;
142;SDS011;63667;49.046;8.468;2023-05-29T07:19:00;10.80;;;5.40;;
142;SDS011;63667;49.046;8.468;2023-05-29T07:21:27;10.57;;;5.80;;
142;SDS011;63667;49.046;8.468;2023-05-29T07:23:54;9.37;;;5.73;;
142;SDS011;63667;49.046;8.468;2023-05-29T07:26:22;7.40;;;5.40;;
142;SDS011;63667;49.046;8.468;2023-05-29T07:28:49;9.57;;;5.97;;
142;SDS011;63667;49.046;8.468;2023-05-29T07:31:16;8.60;;;5.93;;
142;SDS011;63667;49.046;8.468;2023-05-29T07:33:44;7.80;;;5.30;;
142;SDS011;63667;49.046;8.468;2023-05-29T07:36:11;10.53;;;5.60;;
142;SDS011;63667;49.046;8.468;2023-05-29T07:38:38;11.07;;;5.57;;
142;SDS011;63667;49.046;8.468;2023-05-29T07:41:06;10.70;;;6.10;;
142;SDS011;63667;49.046;8.468;2023-05-29T07:43:33;9.60;;;5.67;;
142;SDS011;63667;49.046;8.468;2023-05-29T07:46:00;7.33;;;5.30;;
142;SDS011;63667;49.046;8.468;2023-05-29T07:48:27;8.67;;;5.53;;
142;SDS011;63667;49.046;8.468;2023-05-29T07:50:55;7.97;;;5.30;;
142;SDS011;63667;49.046;8.468;2023-05-29T07:53:22;9.70;;;5.80;;
142;SDS011;63667;49.046;8.468;2023-05-29T07:55:50;10.77;;;5.70;;
142;SDS011;63667;49.046;8.468;2023-05-29T07:58:17;8.90;;;5.73;;
142;SDS011;63667;49.046;8.468;2023-05-29T08:00:45;9.57;;;5.63;;
142;SDS011;63667;49.046;8.468;2023-05-29T08:03:12;11.20;;;6.10;;
142;SDS011;63667;49.046;8.468;2023-05-29T08:05:39;9.87;;;5.77;;
142;SDS011;63667;49.046;8.468;2023-05-29T08:08:07;12.20;;;5.80;;
142;SDS011;63667;49.046;8.468;2023-05-29T08:10:34;8.43;;;5.20;;
142;SDS011;63667;49.046;8.468;2023-05-29T08:13:01;14.73;;;6.63;;
142;SDS011;63667;49.046;8.468;2023-05-29T08:15:29;11.33;;;5.97;;
142;SDS011;63667;49.046;8.468;2023-05-29T08:17:57;8.53;;;5.67;;
142;SDS011;63667;49.046;8.468;2023-05-29T08:20:24;13.97;;;5.63;;
142;SDS011;63667;49.046;8.468;2023-05-29T08:22:52;10.90;;;5.30;;
142;SDS011;63667;49.046;8.468;2023-05-29T08:25:20;9.40;;;5.90;;
142;SDS011;63667;49.046;8.468;2023-05-29T08:27:47;8.23;;;5.93;;
142;SDS011;63667;49.046;8.468;2023-05-29T08:30:15;9.87;;;6.00;;
142;SDS011;63667;49.046;8.468;2023-05-29T08:32:42;9.13;;;6.10;;
142;SDS011;63667;49.046;8.468;2023-05-29T08:35:10;9.20;;;5.73;;
142;SDS011;63667;49.046;8.468;2023-05-29T08:37:37;9.50;;;6.00;;
142;SDS011;63667;49.046;8.468;2023-05-29T08:40:04;11.70;;;5.87;;
142;SDS011;63667;49.046;8.468;2023-05-29T08:42:36;15.70;;;6.00;;
142;SDS011;63667;49.046;8.468;2023-05-29T08:45:03;14.10;;;5.93;;
142;SDS011;63667;49.046;8.468;2023-05-29T08:47:32;7.37;;;5.50;;
142;SDS011;63667;49.046;8.468;2023-05-29T08:50:00;9.10;;;6.07;;
142;SDS011;63667;49.046;8.468;2023-05-29T08:52:29;12.50;;;6.40;;
142;SDS011;63667;49.046;8.468;2023-05-29T08:54:57;10.40;;;5.37;;
142;SDS011;63667;49.046;8.468;2023-05-29T08:57:27;10.63;;;5.70;;
142;SDS011;63667;49.046;8.468;2023-05-29T08:59:56;14.77;;;6.30;;
142;SDS011;63667;49.046;8.468;2023-05-29T09:02:23;8.77;;;6.30;;
142;SDS011;63667;49.046;8.468;2023-05-29T09:04:51;11.17;;;6.20;;
142;SDS011;63667;49.046;8.468;2023-05-29T09:07:20;7.50;;;6.00;;
142;SDS011;63667;49.046;8.468;2023-05-29T09:09:47;11.60;;;6.30;;
142;SDS011;63667;49.046;8.468;2023-05-29T09:12:15;9.07;;;5.70;;
142;SDS011;63667;49.046;8.468;2023-05-29T09:14:43;8.63;;;6.20;;
142;SDS011;63667;49.046;8.468;2023-05-29T09:17:11;10.70;;;5.43;;
142;SDS011;63667;49.046;8.468;2023-05-29T09:19:39;8.43;;;5.77;;
142;SDS011;63667;49.046;8.468;2023-05-29T09:22:10;9.17;;;5.80;;
142;SDS011;63667;49.046;8.468;2023-05-29T09:24:41;13.30;;;6.97;;
142;SDS011;63667;49.046;8.468;2023-05-29T09:27:09;7.70;;;5.17;;
142;SDS011;63667;49.046;8.468;2023-05-29T09:29:42;12.83;;;6.00;;
142;SDS011;63667;49.046;8.468;2023-05-29T09:32:10;8.43;;;5.70;;
142;SDS011;63667;49.046;8.468;2023-05-29T09:34:37;10.07;;;5.63;;
142;SDS011;63667;49.046;8.468;2023-05-29T09:37:06;10.67;;;6.17;;
142;SDS011;63667;49.046;8.468;2023-05-29T09:39:49;7.73;;;5.70;;
142;SDS011;63667;49.046;8.468;2023-05-29T09:42:20;11.47;;;6.03;;
142;SDS011;63667;49.046;8.468;2023-05-29T09:44:50;9.53;;;5.93;;
142;SDS011;63667;49.046;8.468;2023-05-29T09:47:18;10.50;;;6.20;;
142;SDS011;63667;49.046;8.468;2023-05-29T09:49:45;9.37;;;5.47;;
142;SDS011;63667;49.046;8.468;2023-05-29T09:52:13;9.47;;;5.90;;
142;SDS011;63667;49.046;8.468;2023-05-29T09:54:42;12.00;;;6.63;;
142;SDS011;63667;49.046;8.468;2023-05-29T09:57:14;7.10;;;5.30;;
142;SDS011;63667;49.046;8.468;2023-05-29T09:59:45;10.10;;;6.03;;
142;SDS011;63667;49.046;8.468;2023-05-29T10:02:17;9.10;;;6.20;;
142;SDS011;63667;49.046;8.468;2023-05-29T10:04:44;8.10;;;6.20;;
142;SDS011;63667;49.046;8.468;2023-05-29T10:09:47;10.60;;;5.83;;
142;SDS011;63667;49.046;8.468;2023-05-29T10:12:18;8.53;;;6.20;;
142;SDS011;63667;49.046;8.468;2023-05-29T10:14:47;8.80;;;6.10;;
142;SDS011;63667;49.046;8.468;2023-05-29T10:17:16;17.10;;;6.17;;
142;SDS011;63667;49.046;8.468;2023-05-29T10:19:45;10.10;;;6.70;;
142;SDS011;63667;49.046;8.468;2023-05-29T10:22:14;11.63;;;6.73;;
142;SDS011;63667;49.046;8.468;2023-05-29T10:24:45;13.57;;;7.70;;
142;SDS011;63667;49.046;8.468;2023-05-29T10:27:13;14.70;;;6.30;;
142;SDS011;63667;49.046;8.468;2023-05-29T10:29:46;9.73;;;6.67;;
142;SDS011;63667;49.046;8.468;2023-05-29T10:35:06;6.70;;;6.13;;
142;SDS011;63667;49.046;8.468;2023-05-29T10:37:43;10.93;;;6.63;;
142;SDS011;63667;49.046;8.468;2023-05-29T10:40:11;14.87;;;8.00;;
142;SDS011;63667;49.046;8.468;2023-05-29T10:45:05;18.00;;;9.97;;
142;SDS011;63667;49.046;8.468;2023-05-29T10:47:33;12.80;;;6.83;;
142;SDS011;63667;49.046;8.468;2023-05-29T10:50:00;10.40;;;6.50;;
142;SDS011;63667;49.046;8.468;2023-05-29T10:52:31;17.47;;;7.13;;
142;SDS011;63667;49.046;8.468;2023-05-29T10:54:58;10.90;;;6.50;;
142;SDS011;63667;49.046;8.468;2023-05-29T10:57:26;6.70;;;5.30;;
142;SDS011;63667;49.046;8.468;2023-05-29T10:59:59;8.23;;;6.13;;
142;SDS011;63667;49.046;8.468;2023-05-29T11:02:27;6.90;;;5.50;;
142;SDS011;63667;49.046;8.468;2023-05-29T11:07:34;12.07;;;6.37;;
142;SDS011;63667;49.046;8.468;2023-05-29T11:10:10;17.83;;;6.10;;
142;SDS011;63667;49.046;8.468;2023-05-29T11:12:57;13.13;;;5.87;;
142;SDS011;63667;49.046;8.468;2023-05-29T11:15:26;8.20;;;5.70;;
142;SDS011;63667;49.046;8.468;2023-05-29T11:17:53;8.53;;;5.30;;
142;SDS011;63667;49.046;8.468;2023-05-29T11:20:28;10.50;;;5.83;;
142;SDS011;63667;49.046;8.468;2023-05-29T11:23:14;8.50;;;5.80;;
142;SDS011;63667;49.046;8.468;2023-05-29T11:25:43;9.73;;;5.20;;
142;SDS011;63667;49.046;8.468;2023-05-29T11:28:10;20.00;;;6.30;;
142;SDS011;63667;49.046;8.468;2023-05-29T11:30:42;11.80;;;5.23;;
142;SDS011;63667;49.046;8.468;2023-05-29T11:33:12;9.80;;;5.60;;
142;SDS011;63667;49.046;8.468;2023-05-29T11:35:42;11.47;;;5.23;;
142;SDS011;63667;49.046;8.468;2023-05-29T11:38:09;8.13;;;5.40;;
142;SDS011;63667;49.046;8.468;2023-05-29T11:40:36;9.37;;;5.17;;
142;SDS011;63667;49.046;8.468;2023-05-29T11:43:04;7.63;;;5.80;;
142;SDS011;63667;49.046;8.468;2023-05-29T11:45:32;6.40;;;5.50;;
142;SDS011;63667;49.046;8.468;2023-05-29T11:48:01;10.73;;;6.07;;
142;SDS011;63667;49.046;8.468;2023-05-29T11:50:30;7.70;;;5.20;;
142;SDS011;63667;49.046;8.468;2023-05-29T11:52:57;6.30;;;5.17;;
142;SDS011;63667;49.046;8.468;2023-05-29T11:55:25;8.07;;;6.30;;
142;SDS011;63667;49.046;8.468;2023-05-29T11:57:59;9.30;;;5.97;;
142;SDS011;63667;49.046;8.468;2023-05-29T12:00:37;9.33;;;5.80;;
142;SDS011;63667;49.046;8.468;2023-05-29T12:03:04;6.87;;;5.07;;
142;SDS011;63667;49.046;8.468;2023-05-29T12:05:33;9.80;;;5.70;;
142;SDS011;63667;49.046;8.468;2023-05-29T12:08:10;10.63;;;5.50;;
142;SDS011;63667;49.046;8.468;2023-05-29T12:10:37;13.77;;;5.77;;
142;SDS011;63667;49.046;8.468;2023-05-29T12:13:05;8.37;;;5.50;;
142;SDS011;63667;49.046;8.468;2023-05-29T12:15:33;13.87;;;5.70;;
142;SDS011;63667;49.046;8.468;2023-05-29T12:18:00;7.00;;;5.07;;
142;SDS011;63667;49.046;8.468;2023-05-29T12:20:28;5.90;;;5.20;;
142;SDS011;63667;49.046;8.468;2023-05-29T12:22:59;5.27;;;5.00;;
142;SDS011;63667;49.046;8.468;2023-05-29T12:25:27;9.00;;;5.60;;
142;SDS011;63667;49.046;8.468;2023-05-29T12:27:55;5.80;;;5.17;;
142;SDS011;63667;49.046;8.468;2023-05-29T12:30:23;6.73;;;5.43;;
142;SDS011;63667;49.046;8.468;2023-05-29T12:32:51;6.57;;;5.47;;
142;SDS011;63667;49.046;8.468;2023-05-29T12:35:19;7.63;;;5.30;;
142;SDS011;63667;49.046;8.468;2023-05-29T12:37:47;6.20;;;5.30;;
142;SDS011;63667;49.046;8.468;2023-05-29T12:40:22;7.93;;;5.30;;
142;SDS011;63667;49.046;8.468;2023-05-29T12:43:06;7.50;;;5.60;;
142;SDS011;63667;49.046;8.468;2023-05-29T12:45:36;6.20;;;5.20;;
142;SDS011;63667;49.046;8.468;2023-05-29T12:48:04;6.57;;;5.50;;
142;SDS011;63667;49.046;8.468;2023-05-29T12:50:34;14.03;;;5.23;;
142;SDS011;63667;49.046;8.468;2023-05-29T12:53:11;6.77;;;5.23;;
142;SDS011;63667;49.046;8.468;2023-05-29T12:55:43;9.17;;;5.57;;
142;SDS011;63667;49.046;8.468;2023-05-29T12:58:11;6.70;;;5.23;;
142;SDS011;63667;49.046;8.468;2023-05-29T13:00:38;6.70;;;5.00;;
142;SDS011;63667;49.046;8.468;2023-05-29T13:03:06;7.80;;;5.47;;
142;SDS011;63667;49.046;8.468;2023-05-29T13:05:33;6.77;;;4.90;;
142;SDS011;63667;49.046;8.468;2023-05-29T13:08:00;6.33;;;4.73;;
142;SDS011;63667;49.046;8.468;2023-05-29T13:10:30;7.37;;;5.60;;
142;SDS011;63667;49.046;8.468;2023-05-29T13:12:58;8.37;;;4.93;;
142;SDS011;63667;49.046;8.468;2023-05-29T13:15:25;7.90;;;5.67;;
142;SDS011;63667;49.046;8.468;2023-05-29T13:17:53;6.43;;;4.93;;
142;SDS011;63667;49.046;8.468;2023-05-29T13:20:21;5.27;;;4.73;;
142;SDS011;63667;49.046;8.468;2023-05-29T13:22:48;6.37;;;5.10;;
142;SDS011;63667;49.046;8.468;2023-05-29T13:25:16;7.40;;;4.80;;
142;SDS011;63667;49.046;8.468;2023-05-29T13:27:49;12.57;;;5.40;;
142;SDS011;63667;49.046;8.468;2023-05-29T13:30:17;5.60;;;4.83;;
142;SDS011;63667;49.046;8.468;2023-05-29T13:32:44;8.53;;;4.57;;
142;SDS011;63667;49.046;8.468;2023-05-29T13:35:11;5.83;;;4.60;;
142;SDS011;63667;49.046;8.468;2023-05-29T13:37:39;5.27;;;4.97;;
142;SDS011;63667;49.046;8.468;2023-05-29T13:40:06;5.63;;;4.73;;
142;SDS011;63667;49.046;8.468;2023-05-29T13:42:35;6.83;;;4.70;;
142;SDS011;63667;49.046;8.468;2023-05-29T13:45:03;11.43;;;4.80;;
142;SDS011;63667;49.046;8.468;2023-05-29T13:47:33;8.60;;;4.63;;
142;SDS011;63667;49.046;8.468;2023-05-29T13:50:00;6.00;;;4.83;;
142;SDS011;63667;49.046;8.468;2023-05-29T13:52:27;6.87;;;4.87;;
142;SDS011;63667;49.046;8.468;2023-05-29T13:54:54;4.97;;;4.43;;
142;SDS011;63667;49.046;8.468;2023-05-29T13:57:25;7.20;;;4.30;;
142;SDS011;63667;49.046;8.468;2023-05-29T13:59:53;6.80;;;5.27;;
142;SDS011;63667;49.046;8.468;2023-05-29T14:02:23;5.60;;;4.60;;
142;SDS011;63667;49.046;8.468;2023-05-29T14:04:50;6.67;;;4.63;;
142;SDS011;63667;49.046;8.468;2023-05-29T14:07:17;6.13;;;4.70;;
142;SDS011;63667;49.046;8.468;2023-05-29T14:09:44;5.40;;;4.70;;
142;SDS011;63667;49.046;8.468;2023-05-29T14:12:11;5.20;;;4.80;;
142;SDS011;63667;49.046;8.468;2023-05-29T14:14:38;10.00;;;4.30;;
142;SDS011;63667;49.046;8.468;2023-05-29T14:17:05;5.77;;;4.70;;
142;SDS011;63667;49.046;8.468;2023-05-29T14:19:34;6.60;;;4.93;;
142;SDS011;63667;49.046;8.468;2023-05-29T14:22:02;5.33;;;5.03;;
142;SDS011;63667;49.046;8.468;2023-05-29T14:24:30;7.07;;;5.20;;
142;SDS011;63667;49.046;8.468;2023-05-29T14:26:57;7.63;;;4.40;;
142;SDS011;63667;49.046;8.468;2023-05-29T14:29:24;7.87;;;4.63;;
142;SDS011;63667;49.046;8.468;2023-05-29T14:31:51;5.17;;;4.60;;
142;SDS011;63667;49.046;8.468;2023-05-29T14:34:18;10.30;;;5.17;;
142;SDS011;63667;49.046;8.468;2023-05-29T14:36:48;5.80;;;4.50;;
142;SDS011;63667;49.046;8.468;2023-05-29T14:39:16;7.67;;;4.67;;
142;SDS011;63667;49.046;8.468;2023-05-29T14:41:44;10.00;;;5.37;;
142;SDS011;63667;49.046;8.468;2023-05-29T14:44:11;5.80;;;4.23;;
142;SDS011;63667;49.046;8.468;2023-05-29T14:46:38;5.83;;;4.60;;
142;SDS011;63667;49.046;8.468;2023-05-29T14:49:06;6.63;;;5.37;;
142;SDS011;63667;49.046;8.468;2023-05-29T14:51:33;11.30;;;5.00;;
142;SDS011;63667;49.046;8.468;2023-05-29T14:54:02;7.57;;;5.27;;
142;SDS011;63667;49.046;8.468;2023-05-29T14:56:30;8.60;;;5.07;;
142;SDS011;63667;49.046;8.468;2023-05-29T14:58:56;6.73;;;4.77;;
142;SDS011;63667;49.046;8.468;2023-05-29T15:01:23;9.10;;;4.97;;
142;SDS011;63667;49.046;8.468;2023-05-29T15:03:51;5.23;;;4.90;;
142;SDS011;63667;49.046;8.468;2023-05-29T15:06:18;7.03;;;4.93;;
142;SDS011;63667;49.046;8.468;2023-05-29T15:08:45;7.20;;;4.70;;
142;SDS011;63667;49.046;8.468;2023-05-29T15:11:13;4.30;;;4.00;;
142;SDS011;63667;49.046;8.468;2023-05-29T15:13:41;7.03;;;5.37;;
142;SDS011;63667;49.046;8.468;2023-05-29T15:16:08;7.20;;;4.70;;
142;SDS011;63667;49.046;8.468;2023-05-29T15:18:35;12.57;;;5.40;;
142;SDS011;63667;49.046;8.468;2023-05-29T15:21:03;9.50;;;5.40;;
142;SDS011;63667;49.046;8.468;2023-05-29T15:23:31;5.00;;;4.57;;
142;SDS011;63667;49.046;8.468;2023-05-29T15:26:00;7.10;;;5.17;;
142;SDS011;63667;49.046;8.468;2023-05-29T15:28:28;8.03;;;5.37;;
142;SDS011;63667;49.046;8.468;2023-05-29T15:30:55;9.30;;;4.50;;
142;SDS011;63667;49.046;8.468;2023-05-29T15:33:23;5.57;;;5.03;;